METAR Data
IDs: Format: Raw Decoded Include TAF

Data at: 0910 UTC 07 Dec 2021

KPGD 070900Z AUTO 00000KT M1/4SM FG VV002 17/17 A3008 RMK AO2 T01670167
KPGD 070853Z AUTO 00000KT 1/4SM FG VV002 17/17 A3007 RMK AO2 SLP183 T01670167 56008
KPGD 070845Z AUTO 00000KT 1/4SM FG VV001 17/17 A3008 RMK AO2 T01670167
KPGD 070829Z AUTO 00000KT M1/4SM FG VV002 16/16 A3008 RMK AO2 T01560156
KPGD 070753Z 00000KT 1/4SM FG VV001 15/15 A3008 RMK AO2 SLP185 T01500150
KPGD 070743Z AUTO 00000KT 1/4SM FG VV001 15/15 A3008 RMK AO2 T01500150
KPGD 070735Z AUTO 00000KT 1/2SM FG VV001 15/15 A3008 RMK AO2 T01500150
KPGD 070653Z AUTO 00000KT 1/4SM FG VV002 15/15 A3008 RMK AO2 SLP185 T01500150
KPGD 070651Z AUTO 00000KT 1/4SM FG VV002 15/15 A3008 RMK AO2
KPGD 070645Z AUTO 13003KT 1 1/2SM BR BKN002 15/15 A3008 RMK AO2 T01500150
KPGD 070643Z AUTO 00000KT 3SM BR BKN002 15/15 A3008 RMK AO2 T01500150
KPGD 070635Z AUTO 12003KT 2SM BR FEW002 16/16 A3008 RMK AO2 T01560156
KPGD 070633Z AUTO 12003KT 1SM BR VV002 16/16 A3008 RMK AO2 T01560156
KPGD 070553Z AUTO 00000KT 1/4SM FG VV003 17/17 A3010 RMK AO2 SLP191 T01670167 10211 20167 56011
KPGD 070542Z AUTO 00000KT 1/4SM FG VV003 17/17 A3010 RMK AO2 T01670167
KPGD 070536Z AUTO 00000KT 3/4SM BR CLR 17/17 A3010 RMK AO2 T01670167
KPGD 070527Z AUTO 00000KT 2SM BR CLR 17/17 A3010 RMK AO2 VIS 3/4V3 T01720167
KPGD 070517Z AUTO 00000KT 1/2SM FG CLR 17/17 A3010 RMK AO2 T01720172
KPGD 070510Z AUTO 00000KT 1SM BR CLR 17/17 A3011 RMK AO2 T01720172
KPGD 070501Z AUTO 00000KT 3/4SM BR CLR 17/17 A3011 RMK AO2 T01670167
KPGD 070453Z AUTO 00000KT 1 1/4SM BR CLR 17/17 A3011 RMK AO2 SLP196 T01720172 402780156 TSNO
KPGD 070353Z AUTO 32003KT 8SM CLR 18/18 A3013 RMK AO2 SLP202 T01780178
KPGD 070253Z AUTO 00000KT 10SM CLR 19/18 A3013 RMK AO2 SLP202 T01940183 51016
KPGD 070153Z AUTO 32005KT 10SM CLR 19/18 A3013 RMK AO2 SLP200 T01940178
KPGD 070053Z 32004KT 10SM CLR 19/18 A3011 RMK AO2 SLP194 T01890178
KPGD 062353Z 00000KT 10SM CLR 21/18 A3008 RMK AO2 SLP186 T02110183 10278 20211 53009
KPGD 062253Z 23003KT 10SM CLR 23/18 A3007 RMK AO2 SLP180 T02330183
KPGD 062153Z 24005KT 10SM CLR 25/18 A3006 RMK AO2 SLP177 T02500178
KPGD 062053Z 23006KT 10SM CLR 27/17 A3006 RMK AO2 SLP177 T02670172 56015
KPGD 061953Z 23006KT 10SM CLR 27/18 A3007 RMK AO2 SLP180 T02720178
KPGD 061853Z 26008KT 10SM CLR 27/18 A3008 RMK AO2 SLP184 T02720178
KPGD 061753Z 24007KT 10SM CLR 27/18 A3010 RMK AO2 SLP192 T02720178 10278 20178 58023
KPGD 061653Z 21006KT 10SM CLR 26/19 A3013 RMK AO2 SLP200 T02610194
KPGD 061553Z 00000KT 10SM FEW002 24/20 A3015 RMK AO2 SLP210 T02390200
KPGD 061509Z 00000KT 10SM FEW002 21/21 A3017 RMK AO2 T02060206
KPGD 061458Z 12003KT 2 1/2SM BR BKN002 21/20 A3017 RMK AO2 T02060200
KPGD 061451Z 00000KT 3SM BR BKN002 20/20 A3017 RMK AO2 SLP215 T02000200 51013
KPGD 061450Z 00000KT 3SM BR BKN002 20/20 A3017 RMK AO2
KPGD 061438Z VRB03KT 1SM BR OVC002 20/20 A3017 RMK AO2 T02000200
KPGD 061353Z 00000KT 1/4SM FG VV002 18/18 A3016 RMK AO2 SLP213 T01830183
KPGD 061329Z 00000KT 1/4SM FG VV002 18/18 A3016 RMK AO2 T01780178
KPGD 061253Z 00000KT M1/4SM FG VV002 18/18 A3014 RMK AO2 SLP206 T01780178
KPGD 061222Z 00000KT M1/4SM FG VV002 18/18 A3014 RMK AO2 T01780178
KPGD 061153Z 10004KT 1/4SM FG VV002 18/18 A3013 RMK AO2 SLP202 T01780178 10183 20156 53007
KPGD 061053Z 08003KT 1/4SM FG VV002 18/18 A3012 RMK AO2 SLP197 T01780178
KPGD 060953Z AUTO 00000KT 1/4SM FG VV002 18/18 A3011 RMK AO2 SLP196 T01780178
KPGD 060853Z AUTO 10003KT 1/4SM FG VV002 18/18 A3011 RMK AO2 SLP195 T01780178 58006
KPGD 060800Z AUTO 07003KT 1/4SM FG VV002 17/17 A3011 RMK AO2 T01720172
KPGD 060753Z AUTO 06004KT 1 1/2SM BR OVC003 17/17 A3012 RMK AO2 SLP197 T01720172
KPGD 060745Z AUTO 06003KT 3SM BR OVC003 17/17 A3012 RMK AO2 T01670167
KPGD 060737Z AUTO 05004KT 1SM BR OVC003 16/16 A3012 RMK AO2 T01610161
KPGD 060733Z AUTO 04004KT 3/4SM BR OVC005 16/16 A3012 RMK AO2 T01610161
KPGD 060724Z AUTO 04004KT 1/4SM FG BKN005 16/16 A3012 RMK AO2 T01560156
KPGD 060705Z AUTO 03003KT 3/4SM BR VV008 16/16 A3013 RMK AO2 VIS 1/2V5 T01610161
KPGD 060702Z AUTO 03003KT 1 3/4SM BR FEW008 16/16 A3013 RMK AO2 VIS 1/2V5 T01610161
KPGD 060653Z AUTO 02004KT 6SM BR CLR 17/17 A3013 RMK AO2 SLP202 T01720172
KPGD 060553Z AUTO 03004KT 9SM CLR 17/17 A3013 RMK AO2 SLP201 T01720172 10206 20167 58006
KPGD 060453Z AUTO 06004KT 10SM FEW031 FEW050 18/18 A3014 RMK AO2 SLP205 T01780178 402780122
KPGD 060353Z AUTO 10003KT 10SM CLR 18/18 A3015 RMK AO2 SLP209 T01830178
KPGD 060253Z AUTO 07005KT 10SM FEW055 19/18 A3015 RMK AO2 SLP207 T01940183 53012
KPGD 060153Z AUTO 08007KT 10SM FEW060 21/18 A3013 RMK AO2 SLP202 T02060183
KPGD 060053Z 08007KT 10SM FEW060 20/18 A3012 RMK AO2 SLP198 T02000183
KPGD 052353Z 07007KT 10SM FEW044 21/18 A3011 RMK AO2 SLP196 T02060183 10278 20206 53011
KPGD 052253Z 06007KT 10SM FEW044 22/18 A3010 RMK AO2 SLP190 T02170178
KPGD 052153Z 10003KT 10SM FEW040 25/18 A3008 RMK AO2 SLP186 T02500183